Time;durP1;ratioP1;P1;durP2;ratioP2;P2;SDS_P1;SDS_P2;PMS_P1;PMS_P2;Temp;Humidity;BMP_temperature;BMP_pressure;BME280_temperature;BME280_humidity;BME280_pressure;Samples;Min_cycle;Max_cycle;Signal;HPM_P1;HPM_P2
2022/12/11 00:01:53;;;;;;;58.35;17.95;;;-0.60;99.90;;;;;;4980121;28;20054;-91
2022/12/11 00:04:19;;;;;;;67.55;17.98;;;-0.50;99.90;;;;;;4964869;28;20045;-93
2022/12/11 00:06:49;;;;;;;66.55;18.60;;;-0.50;99.90;;;;;;4980174;28;20316;-92
2022/12/11 00:09:22;;;;;;;57.80;17.65;;;-0.50;99.90;;;;;;4961036;28;20038;-92
2022/12/11 00:12:04;;;;;;;;;;;;;;;;;;;;;
2022/12/11 00:14:36;;;;;;;60.53;17.15;;;-0.50;99.90;;;;;;4994452;28;20790;-92
2022/12/11 00:20:43;;;;;;;61.35;18.48;;;-0.40;99.90;;;;;;4976425;28;20402;-92
2022/12/11 00:26:24;;;;;;;64.10;18.85;;;-0.40;99.90;;;;;;4977655;28;20049;-92
2022/12/11 00:29:00;;;;;;;59.47;17.58;;;-0.40;99.90;;;;;;4977440;28;20038;-93
2022/12/11 00:31:35;;;;;;;64.45;17.17;;;-0.30;99.90;;;;;;4973672;28;20050;-91
2022/12/11 00:34:18;;;;;;;64.25;18.40;;;-0.30;99.90;;;;;;4962975;28;20492;-92
2022/12/11 00:37:17;;;;;;;59.15;17.58;;;-0.30;99.90;;;;;;4968577;28;20114;-91
2022/12/11 00:43:34;;;;;;;61.92;16.92;;;-0.30;99.90;;;;;;4979508;28;20045;-92
2022/12/11 00:46:31;;;;;;;;;;;;;;;;;;;;;
2022/12/11 00:49:06;;;;;;;61.08;16.92;;;-0.20;99.90;;;;;;4976305;28;20019;-92
2022/12/11 00:51:41;;;;;;;64.38;16.73;;;-0.20;99.90;;;;;;4975396;28;20125;-93
2022/12/11 00:54:07;;;;;;;55.17;17.05;;;-0.20;99.90;;;;;;4973176;28;20120;-92
2022/12/11 00:56:33;;;;;;;51.35;15.82;;;-0.20;99.90;;;;;;4966515;28;20605;-91
2022/12/11 00:59:05;;;;;;;56.65;15.45;;;-0.10;99.90;;;;;;4974621;28;20119;-92
2022/12/11 01:01:47;;;;;;;58.95;17.23;;;-0.10;99.90;;;;;;4974565;28;20199;-92
2022/12/11 01:04:29;;;;;;;57.88;16.35;;;-0.10;99.90;;;;;;4959099;28;20046;-91
2022/12/11 01:07:13;;;;;;;63.72;16.88;;;-0.10;99.90;;;;;;4960952;28;20049;-91
2022/12/11 01:12:57;;;;;;;62.53;17.17;;;0.00;99.90;;;;;;4979970;28;20049;-92
2022/12/11 01:15:27;;;;;;;63.88;17.23;;;-0.10;99.90;;;;;;4976943;28;20469;-92
2022/12/11 01:18:03;;;;;;;;;;;;;;;;;;;;;
2022/12/11 01:20:42;;;;;;;65.00;16.90;;;0.00;99.90;;;;;;4967817;28;20062;-93
2022/12/11 01:23:11;;;;;;;59.20;15.85;;;0.00;99.90;;;;;;4973565;28;20045;-92
2022/12/11 01:25:38;;;;;;;51.42;16.40;;;0.00;99.90;;;;;;4976723;28;20046;-92
2022/12/11 01:28:14;;;;;;;62.08;16.40;;;0.10;99.90;;;;;;4994218;28;20046;-93
2022/12/11 01:30:42;;;;;;;55.42;15.50;;;0.00;99.90;;;;;;4965236;28;20038;-94
2022/12/11 01:33:14;;;;;;;59.60;16.10;;;0.10;99.90;;;;;;4965194;28;20054;-93
2022/12/11 01:35:46;;;;;;;50.67;16.10;;;0.10;99.90;;;;;;4972325;28;20030;-92
2022/12/11 01:38:22;;;;;;;59.17;15.45;;;0.00;99.90;;;;;;4973302;28;20501;-91
2022/12/11 01:40:48;;;;;;;51.97;15.80;;;0.10;99.90;;;;;;4975229;28;20046;-93
2022/12/11 01:43:14;;;;;;;68.30;15.80;;;0.10;99.90;;;;;;4960011;28;20046;-94
2022/12/11 01:45:46;;;;;;;51.60;16.10;;;0.10;99.90;;;;;;4976276;28;20057;-93
2022/12/11 01:48:23;;;;;;;60.92;17.42;;;0.20;99.90;;;;;;4966804;28;20065;-92
2022/12/11 01:51:03;;;;;;;63.95;16.52;;;0.10;99.90;;;;;;4960273;28;20108;-92
2022/12/11 01:53:41;;;;;;;59.15;15.43;;;0.20;99.90;;;;;;4964002;28;20472;-92
2022/12/11 01:56:07;;;;;;;58.97;16.40;;;0.20;99.90;;;;;;4967417;28;20200;-93
2022/12/11 01:58:54;;;;;;;62.95;16.80;;;0.20;99.90;;;;;;4957444;28;20395;-92
2022/12/11 02:01:28;;;;;;;58.22;15.50;;;0.20;99.90;;;;;;4976274;28;20062;-92
2022/12/11 02:03:55;;;;;;;69.82;16.05;;;0.30;99.90;;;;;;4958566;28;20042;-92
2022/12/11 02:06:32;;;;;;;60.47;15.82;;;0.20;99.90;;;;;;4978695;28;20125;-92
2022/12/11 02:08:59;;;;;;;54.58;15.73;;;0.30;99.90;;;;;;4978095;28;20049;-91
2022/12/11 02:11:34;;;;;;;63.05;17.45;;;0.20;99.90;;;;;;4972328;28;20312;-91
2022/12/11 02:14:27;;;;;;;57.88;15.88;;;0.20;99.90;;;;;;4958295;28;20643;-94
2022/12/11 02:17:23;;;;;;;57.35;16.75;;;0.20;99.90;;;;;;4973595;28;20148;-93
2022/12/11 02:20:16;;;;;;;53.03;14.23;;;0.30;99.90;;;;;;4995670;28;20042;-93
2022/12/11 02:22:57;;;;;;;50.33;14.77;;;0.30;99.90;;;;;;4959674;28;20378;-93
2022/12/11 02:25:50;;;;;;;54.58;15.82;;;0.20;99.90;;;;;;4958123;28;20554;-93
2022/12/11 02:28:35;;;;;;;60.08;15.20;;;0.30;99.90;;;;;;4964346;28;20778;-93
2022/12/11 02:31:23;;;;;;;55.83;14.93;;;0.30;99.90;;;;;;4963269;28;20042;-91
2022/12/11 02:34:15;;;;;;;52.45;14.68;;;0.30;99.90;;;;;;4980901;28;20041;-93
2022/12/11 02:36:48;;;;;;;52.97;14.88;;;0.30;99.90;;;;;;4974729;28;20072;-93
2022/12/11 02:40:35;;;;;;;57.72;15.13;;;0.30;99.90;;;;;;4962811;28;20148;-93
2022/12/11 02:42:41;;;;;;;50.70;13.90;;;0.30;99.90;;;;;;4961547;28;20046;-92
2022/12/11 02:45:12;;;;;;;57.60;15.73;;;0.30;99.90;;;;;;4979442;28;20097;-93
2022/12/11 02:47:38;;;;;;;57.10;14.63;;;0.30;99.90;;;;;;4973422;28;20070;-92
2022/12/11 02:50:10;;;;;;;47.60;15.18;;;0.40;99.90;;;;;;4976541;28;20758;-93
2022/12/11 02:52:41;;;;;;;50.28;14.07;;;0.40;99.90;;;;;;4994050;28;20035;-92
2022/12/11 02:55:09;;;;;;;47.25;14.52;;;0.30;99.90;;;;;;4965266;28;20192;-93
2022/12/11 02:57:58;;;;;;;53.42;15.68;;;0.40;99.90;;;;;;4978377;28;20038;-92
2022/12/11 03:00:26;;;;;;;50.33;14.38;;;0.30;99.90;;;;;;4976595;28;21356;-95
2022/12/11 03:02:52;;;;;;;50.67;13.68;;;0.30;99.90;;;;;;4980128;28;20054;-94
2022/12/11 03:05:18;;;;;;;46.95;14.07;;;0.40;99.90;;;;;;4979406;28;20384;-92
2022/12/11 03:07:44;;;;;;;55.60;15.48;;;0.30;99.90;;;;;;4978737;28;20042;-94
2022/12/11 03:10:17;;;;;;;46.50;14.73;;;0.40;99.90;;;;;;4962416;28;20081;-92
2022/12/11 03:12:46;;;;;;;48.40;14.25;;;0.40;99.90;;;;;;4980462;28;20042;-93
2022/12/11 03:15:22;;;;;;;49.65;14.50;;;0.40;99.90;;;;;;4961016;28;20042;-93
2022/12/11 03:17:48;;;;;;;46.97;14.63;;;0.40;99.90;;;;;;4961734;28;20042;-92
2022/12/11 03:20:17;;;;;;;49.38;14.13;;;0.40;99.90;;;;;;4979479;28;20049;-93
2022/12/11 03:23:06;;;;;;;69.97;14.00;;;0.50;99.90;;;;;;4963165;28;20096;-92
2022/12/11 03:25:49;;;;;;;60.15;14.63;;;0.50;99.90;;;;;;4959405;28;20105;-93
2022/12/11 03:28:26;;;;;;;52.90;13.85;;;0.50;99.90;;;;;;4979977;28;20245;-92
2022/12/11 03:30:53;;;;;;;41.50;13.10;;;0.50;99.90;;;;;;4963307;28;20048;-93
2022/12/11 03:33:34;;;;;;;48.70;12.20;;;0.40;99.90;;;;;;4975002;28;20042;-94
2022/12/11 03:36:15;;;;;;;59.70;14.27;;;0.40;99.90;;;;;;4963800;28;20141;-93
2022/12/11 03:38:48;;;;;;;52.05;13.77;;;0.50;99.90;;;;;;4977240;28;20186;-91
2022/12/11 03:41:17;;;;;;;55.33;13.93;;;0.50;99.90;;;;;;4975241;28;20095;-93
2022/12/11 03:43:44;;;;;;;55.00;13.77;;;0.50;99.90;;;;;;4973831;28;20042;-94
2022/12/11 03:46:12;;;;;;;59.30;13.48;;;0.50;99.90;;;;;;4974960;28;20042;-92
2022/12/11 03:48:44;;;;;;;56.17;15.20;;;0.50;99.90;;;;;;4963342;28;20046;-94
2022/12/11 03:51:11;;;;;;;54.97;13.52;;;0.50;99.90;;;;;;4994728;28;20549;-95
2022/12/11 03:53:43;;;;;;;60.90;14.05;;;0.40;99.90;;;;;;4978482;28;20123;-92
2022/12/11 03:56:12;;;;;;;58.25;14.35;;;0.50;99.90;;;;;;4963217;28;20498;-93
2022/12/11 03:58:41;;;;;;;58.58;15.30;;;0.50;99.90;;;;;;4961693;28;20038;-94
2022/12/11 04:01:12;;;;;;;52.10;13.20;;;0.60;99.90;;;;;;4962103;28;20120;-93
2022/12/11 04:03:38;;;;;;;51.33;15.13;;;0.60;99.90;;;;;;4960794;28;20407;-92
2022/12/11 04:06:04;;;;;;;60.80;14.75;;;0.50;99.90;;;;;;4962875;28;20081;-91
2022/12/11 04:08:30;;;;;;;60.78;14.35;;;0.50;99.90;;;;;;4976177;28;20049;-91
2022/12/11 04:13:43;;;;;;;59.55;15.07;;;0.60;99.90;;;;;;4991460;28;20514;-93
2022/12/11 04:16:09;;;;;;;50.70;13.90;;;0.50;99.90;;;;;;4961563;28;20070;-91
2022/12/11 04:24:16;;;;;;;55.70;14.88;;;0.50;99.90;;;;;;4994150;28;20062;-92
2022/12/11 04:26:51;;;;;;;46.78;14.18;;;0.60;99.90;;;;;;4965787;28;20045;-94
2022/12/11 04:29:16;;;;;;;;;;;0.50;99.90;;;;;;4976193;28;20513;-92
2022/12/11 04:31:42;;;;;;;66.80;13.80;;;0.60;99.90;;;;;;4977996;28;19998;-92
2022/12/11 04:34:08;;;;;;;52.50;15.85;;;0.60;99.90;;;;;;4963433;28;20047;-94
2022/12/11 04:36:34;;;;;;;53.45;15.43;;;0.60;99.90;;;;;;4959881;28;20061;-92
2022/12/11 04:50:07;;;;;;;55.67;14.82;;;0.60;99.90;;;;;;4976507;28;20073;-93
2022/12/11 04:52:33;;;;;;;58.35;16.02;;;0.60;99.90;;;;;;4990865;28;20042;-93
2022/12/11 04:54:59;;;;;;;61.92;15.48;;;0.60;99.90;;;;;;4959558;28;20359;-94
2022/12/11 04:57:33;;;;;;;54.63;15.55;;;0.50;99.90;;;;;;4975730;28;20599;-92
2022/12/11 04:59:59;;;;;;;;;;;0.60;99.90;;;;;;4989841;28;20042;-93
2022/12/11 05:02:25;;;;;;;47.03;13.27;;;0.60;99.90;;;;;;4997392;28;19927;-93
2022/12/11 05:04:51;;;;;;;55.72;15.50;;;0.60;99.90;;;;;;4976878;28;20587;-92
2022/12/11 05:07:39;;;;;;;51.58;14.95;;;0.50;99.90;;;;;;4976879;28;20077;-92
2022/12/11 05:10:09;;;;;;;55.05;14.68;;;0.50;99.90;;;;;;4961551;28;20037;-93
2022/12/11 05:12:38;;;;;;;53.92;14.73;;;0.60;99.90;;;;;;4960330;28;20042;-94
2022/12/11 05:15:06;;;;;;;49.55;14.60;;;0.60;99.90;;;;;;4975937;28;20045;-94
2022/12/11 05:17:32;;;;;;;54.28;15.65;;;0.60;99.90;;;;;;4967812;28;20037;-93
2022/12/11 05:19:58;;;;;;;54.72;15.60;;;0.60;99.90;;;;;;4964317;28;20365;-94
2022/12/11 05:22:24;;;;;;;55.70;15.45;;;0.60;99.90;;;;;;4976720;28;20042;-92
2022/12/11 05:24:50;;;;;;;53.83;15.40;;;0.60;99.90;;;;;;4980366;28;20100;-91
2022/12/11 05:27:15;;;;;;;57.50;15.40;;;0.60;99.90;;;;;;4977978;28;20076;-93
2022/12/11 05:29:44;;;;;;;50.65;14.50;;;0.60;99.90;;;;;;4975758;28;20056;-92
2022/12/11 05:32:10;;;;;;;44.53;14.68;;;0.60;99.90;;;;;;4993577;28;20310;-92
2022/12/11 05:34:36;;;;;;;52.42;15.00;;;0.60;99.90;;;;;;4960585;28;20048;-94
2022/12/11 05:37:06;;;;;;;56.63;16.08;;;0.60;99.90;;;;;;4963440;28;20041;-94
2022/12/11 05:39:41;;;;;;;55.25;15.75;;;0.60;99.90;;;;;;4964743;28;20048;-92
2022/12/11 05:42:16;;;;;;;48.08;14.75;;;0.70;99.90;;;;;;4961891;28;20134;-93
2022/12/11 05:44:42;;;;;;;56.30;15.02;;;0.60;99.90;;;;;;4960330;28;20442;-93
2022/12/11 05:47:07;;;;;;;54.08;13.90;;;0.70;99.90;;;;;;4980650;28;20045;-94
2022/12/11 05:49:33;;;;;;;55.45;14.27;;;0.60;99.90;;;;;;4967037;28;20065;-95
2022/12/11 05:51:59;;;;;;;52.30;15.00;;;0.70;99.90;;;;;;4965526;28;20092;-92
2022/12/11 05:54:24;;;;;;;57.13;14.75;;;0.70;99.90;;;;;;4982567;28;20040;-93
2022/12/11 05:56:50;;;;;;;52.00;14.30;;;0.70;99.90;;;;;;4965353;28;20176;-92
2022/12/11 05:59:21;;;;;;;52.40;15.40;;;0.70;99.90;;;;;;4978033;28;20042;-95
2022/12/11 06:01:55;;;;;;;52.75;15.60;;;0.70;99.90;;;;;;4975587;28;20417;-92
2022/12/11 06:04:24;;;;;;;54.03;15.20;;;0.60;99.90;;;;;;4962170;28;20403;-93
2022/12/11 06:06:52;;;;;;;49.05;15.15;;;0.70;99.90;;;;;;4980649;28;20494;-92
2022/12/11 06:09:18;;;;;;;48.40;15.23;;;0.70;99.90;;;;;;4960940;28;20034;-93
2022/12/11 06:11:47;;;;;;;54.67;15.27;;;0.70;99.90;;;;;;4994190;28;20113;-93
2022/12/11 06:14:15;;;;;;;45.03;13.68;;;0.70;99.90;;;;;;4963135;28;20042;-92
2022/12/11 06:16:41;;;;;;;50.33;13.50;;;0.70;99.90;;;;;;4963453;28;20367;-92
2022/12/11 06:19:13;;;;;;;48.35;14.43;;;0.70;99.90;;;;;;4961322;28;20062;-93
2022/12/11 06:21:39;;;;;;;52.17;14.70;;;0.70;99.90;;;;;;4980798;28;20149;-93
2022/12/11 06:24:09;;;;;;;49.40;14.20;;;0.70;99.90;;;;;;4962656;28;20581;-94
2022/12/11 06:26:35;;;;;;;42.58;13.45;;;0.70;99.90;;;;;;4994440;28;20046;-93
2022/12/11 06:29:00;;;;;;;50.65;14.65;;;0.70;99.90;;;;;;4976521;28;20052;-94
2022/12/11 06:31:26;;;;;;;48.42;13.90;;;0.70;99.90;;;;;;4978878;28;20038;-95
2022/12/11 06:33:58;;;;;;;51.55;15.02;;;0.70;99.90;;;;;;4975892;28;20053;-93
2022/12/11 06:36:24;;;;;;;46.42;14.45;;;0.70;99.90;;;;;;4978687;28;20042;-94
2022/12/11 06:38:51;;;;;;;48.80;13.63;;;0.70;99.90;;;;;;4975724;28;20042;-93
2022/12/11 06:41:17;;;;;;;51.60;13.75;;;0.70;99.90;;;;;;4959886;28;20050;-95
2022/12/11 06:43:42;;;;;;;45.53;13.55;;;0.70;99.90;;;;;;4962487;28;20068;-95
2022/12/11 06:46:12;;;;;;;47.50;14.57;;;0.70;99.90;;;;;;4975237;28;20038;-93
2022/12/11 06:48:42;;;;;;;53.10;14.35;;;0.70;99.90;;;;;;4974257;28;20524;-94
2022/12/11 06:51:11;;;;;;;48.63;14.10;;;0.70;99.90;;;;;;4972382;28;20073;-93
2022/12/11 06:53:37;;;;;;;51.05;14.02;;;0.70;99.90;;;;;;4964532;28;20030;-94
2022/12/11 06:56:05;;;;;;;49.85;13.20;;;0.70;99.90;;;;;;4959628;28;20035;-93
2022/12/11 06:58:36;;;;;;;44.22;13.88;;;0.70;99.90;;;;;;4964901;28;20121;-92
2022/12/11 07:01:03;;;;;;;54.75;13.55;;;0.80;99.90;;;;;;4963043;28;20406;-93
2022/12/11 07:03:29;;;;;;;47.13;13.65;;;0.70;99.90;;;;;;4962160;28;20125;-93
2022/12/11 07:06:00;;;;;;;43.08;12.60;;;0.70;99.90;;;;;;4982071;28;20085;-93
2022/12/11 07:08:28;;;;;;;64.00;14.20;;;0.70;99.90;;;;;;4990927;28;20121;-94
2022/12/11 07:10:53;;;;;;;59.53;15.50;;;0.70;99.90;;;;;;4980195;28;20513;-93
2022/12/11 07:13:19;;;;;;;49.15;14.93;;;0.70;99.90;;;;;;4977279;28;20030;-94
2022/12/11 07:15:48;;;;;;;57.95;14.52;;;0.80;99.90;;;;;;4965813;28;20034;-94
2022/12/11 07:18:14;;;;;;;53.35;13.90;;;0.80;99.90;;;;;;4974046;28;20081;-93
2022/12/11 07:20:40;;;;;;;64.65;16.23;;;0.80;99.90;;;;;;4975933;28;20038;-94
2022/12/11 07:23:05;;;;;;;53.28;15.45;;;0.70;99.90;;;;;;4962668;28;22151;-95
2022/12/11 07:25:31;;;;;;;59.28;14.52;;;0.70;99.90;;;;;;4977529;28;20045;-92
2022/12/11 07:27:57;;;;;;;63.55;15.52;;;0.70;99.90;;;;;;4973378;28;20046;-94
2022/12/11 07:30:23;;;;;;;58.67;15.00;;;0.70;99.90;;;;;;4976109;28;20038;-93
2022/12/11 07:32:49;;;;;;;59.10;14.63;;;0.70;99.90;;;;;;4979529;28;20125;-95
2022/12/11 07:35:15;;;;;;;57.15;15.40;;;0.70;99.90;;;;;;4975013;28;20041;-93
2022/12/11 07:37:44;;;;;;;63.78;16.50;;;0.70;99.90;;;;;;4962057;28;20357;-94
2022/12/11 07:40:10;;;;;;;52.80;15.32;;;0.70;99.90;;;;;;4977047;28;20084;-93
2022/12/11 07:42:39;;;;;;;61.45;15.30;;;0.80;99.90;;;;;;4976229;28;20606;-93
2022/12/11 07:45:06;;;;;;;69.68;15.43;;;0.70;99.90;;;;;;4978498;28;20057;-96
2022/12/11 07:47:41;;;;;;;63.28;15.15;;;0.80;99.90;;;;;;4977070;28;20615;-93
2022/12/11 07:50:07;;;;;;;66.72;14.40;;;0.70;99.90;;;;;;4957013;28;20057;-93
2022/12/11 07:52:35;;;;;;;60.47;14.77;;;0.70;99.90;;;;;;4975740;28;20042;-95
2022/12/11 07:55:01;;;;;;;55.75;14.75;;;0.70;99.90;;;;;;4986361;28;20042;-92
2022/12/11 07:57:28;;;;;;;60.17;16.67;;;0.80;99.90;;;;;;4968197;28;20449;-95
2022/12/11 07:59:54;;;;;;;56.75;15.32;;;0.70;99.90;;;;;;4970859;28;20653;-93
2022/12/11 08:02:21;;;;;;;69.90;15.70;;;0.70;99.90;;;;;;4989723;28;20104;-95
2022/12/11 08:04:47;;;;;;;62.47;16.27;;;0.80;99.90;;;;;;4973836;28;20065;-95
2022/12/11 08:07:12;;;;;;;59.92;16.33;;;0.80;99.90;;;;;;4955486;28;20042;-93
2022/12/11 08:09:38;;;;;;;62.00;15.82;;;0.80;99.90;;;;;;4965198;28;20042;-93
2022/12/11 08:12:07;;;;;;;57.83;15.80;;;0.80;99.90;;;;;;4979824;28;20565;-93
2022/12/11 08:14:36;;;;;;;62.42;16.30;;;0.70;99.90;;;;;;4974104;28;20038;-93
2022/12/11 08:17:02;;;;;;;68.03;16.10;;;0.80;99.90;;;;;;4960954;28;20053;-94
2022/12/11 08:19:27;;;;;;;61.40;16.23;;;0.70;99.90;;;;;;4977102;28;20038;-94
2022/12/11 08:21:53;;;;;;;60.70;14.63;;;0.80;99.90;;;;;;4973276;28;20038;-93
2022/12/11 08:24:19;;;;;;;57.08;15.50;;;0.80;99.90;;;;;;4973492;28;20076;-94
2022/12/11 08:26:48;;;;;;;59.28;15.85;;;0.80;99.90;;;;;;4979173;28;20478;-94
2022/12/11 08:29:17;;;;;;;55.78;15.27;;;0.80;99.90;;;;;;4975343;28;20077;-94
2022/12/11 08:31:43;;;;;;;61.63;15.38;;;0.80;99.90;;;;;;4961803;28;20929;-95
2022/12/11 08:34:12;;;;;;;61.15;14.73;;;0.80;99.90;;;;;;4989380;28;20187;-94
2022/12/11 08:36:42;;;;;;;66.82;15.05;;;0.80;99.90;;;;;;4970096;28;20051;-93
2022/12/11 08:39:08;;;;;;;53.65;15.45;;;0.80;99.90;;;;;;4973961;28;20120;-94
2022/12/11 08:41:34;;;;;;;58.78;15.35;;;0.80;99.90;;;;;;4963863;28;20041;-94
2022/12/11 08:44:00;;;;;;;70.43;16.60;;;0.90;99.90;;;;;;4973029;28;20046;-96
2022/12/11 08:46:32;;;;;;;63.50;15.65;;;0.80;99.90;;;;;;4977494;28;20133;-94
2022/12/11 08:48:59;;;;;;;63.42;14.57;;;0.80;99.90;;;;;;4956030;28;20489;-95
2022/12/11 08:51:27;;;;;;;61.63;14.93;;;0.90;99.90;;;;;;4975710;28;20443;-94
2022/12/11 08:53:58;;;;;;;76.43;17.10;;;0.80;99.90;;;;;;4989087;28;20393;-95
2022/12/11 08:56:25;;;;;;;61.78;16.48;;;0.80;99.90;;;;;;4966104;28;20045;-92
2022/12/11 08:58:51;;;;;;;80.85;18.30;;;0.90;99.90;;;;;;4958203;28;20375;-93
2022/12/11 09:01:22;;;;;;;68.30;17.42;;;0.90;99.90;;;;;;4974172;28;20054;-93
2022/12/11 09:03:52;;;;;;;62.92;18.85;;;0.90;99.90;;;;;;4973675;28;20073;-95
2022/12/11 09:06:21;;;;;;;83.85;20.20;;;0.80;99.90;;;;;;4976666;28;20589;-92
2022/12/11 09:08:49;;;;;;;66.82;18.08;;;0.90;99.90;;;;;;4983601;28;20046;-93
2022/12/11 09:11:24;;;;;;;63.33;17.20;;;0.90;99.90;;;;;;4960994;28;20057;-94
2022/12/11 09:13:50;;;;;;;80.10;22.35;;;0.90;99.90;;;;;;4973254;28;20081;-94
2022/12/11 09:16:23;;;;;;;66.60;18.65;;;0.90;99.90;;;;;;4958399;28;20498;-94
2022/12/11 09:18:53;;;;;;;94.53;30.75;;;0.90;99.90;;;;;;4957053;28;20043;-95
2022/12/11 09:21:22;;;;;;;72.05;20.73;;;0.90;99.90;;;;;;4960373;28;20051;-94
2022/12/11 09:24:07;;;;;;;63.05;18.10;;;1.00;99.90;;;;;;4973654;28;20046;-93
2022/12/11 09:26:36;;;;;;;61.67;17.95;;;0.90;99.90;;;;;;4989853;28;20058;-93
2022/12/11 09:29:06;;;;;;;72.05;16.80;;;0.90;99.90;;;;;;4971540;28;20412;-94
2022/12/11 09:31:36;;;;;;;58.53;18.05;;;1.00;99.90;;;;;;4974820;28;20042;-93
2022/12/11 09:34:07;;;;;;;69.30;17.38;;;1.00;99.90;;;;;;4957063;28;20058;-94
2022/12/11 09:36:34;;;;;;;74.95;19.42;;;1.10;99.90;;;;;;4959492;28;20042;-93
2022/12/11 09:39:04;;;;;;;79.13;20.75;;;1.10;99.90;;;;;;4988457;28;20522;-95
2022/12/11 09:41:59;;;;;;;64.55;18.02;;;1.20;99.90;;;;;;4976336;28;20351;-94
2022/12/11 09:44:34;;;;;;;54.13;17.95;;;1.20;99.90;;;;;;4934602;28;20100;-93
2022/12/11 09:47:00;;;;;;;;;;;1.10;99.90;;;;;;4973862;28;20046;-94
2022/12/11 09:49:42;;;;;;;61.55;17.00;;;1.10;99.90;;;;;;4971553;28;19928;-93
2022/12/11 09:52:12;;;;;;;61.97;17.80;;;1.10;99.90;;;;;;4955529;28;20062;-94
2022/12/11 09:54:59;;;;;;;69.53;19.30;;;1.00;99.90;;;;;;4953511;28;20410;-94
2022/12/11 09:57:28;;;;;;;56.92;17.92;;;1.20;99.90;;;;;;4955212;28;20046;-95
2022/12/11 10:00:10;;;;;;;65.72;17.90;;;1.10;99.90;;;;;;4971836;28;20042;-94
2022/12/11 10:02:48;;;;;;;60.53;18.10;;;1.20;99.90;;;;;;4975350;28;20050;-95
2022/12/11 10:05:52;;;;;;;63.88;20.17;;;1.10;99.90;;;;;;4989045;28;20034;-95
2022/12/11 10:08:53;;;;;;;65.38;18.75;;;1.10;99.90;;;;;;4972995;28;20268;-95
2022/12/11 10:11:31;;;;;;;72.28;19.65;;;1.20;99.90;;;;;;4966467;28;20051;-94
2022/12/11 10:14:36;;;;;;;63.67;18.30;;;1.30;99.90;;;;;;4956483;28;20066;-95
2022/12/11 10:17:10;;;;;;;60.85;17.40;;;1.20;99.90;;;;;;4961804;28;20133;-95
2022/12/11 10:19:40;;;;;;;50.67;16.77;;;1.20;99.90;;;;;;4957648;28;20510;-95
2022/12/11 10:22:20;;;;;;;69.57;16.52;;;1.20;99.90;;;;;;4989355;28;20038;-94
2022/12/11 10:25:01;;;;;;;57.83;16.15;;;1.20;99.90;;;;;;4956729;28;20126;-94
2022/12/11 10:27:39;;;;;;;50.63;17.75;;;1.30;99.90;;;;;;4958630;28;20046;-94
2022/12/11 10:30:18;;;;;;;59.90;16.10;;;1.30;99.90;;;;;;4986706;28;20501;-95
2022/12/11 10:32:49;;;;;;;72.93;17.25;;;1.30;99.90;;;;;;4958293;28;20046;-95
2022/12/11 10:35:35;;;;;;;58.47;16.63;;;1.30;99.90;;;;;;4975646;28;20044;-95
2022/12/11 10:38:27;;;;;;;53.85;16.60;;;1.30;99.90;;;;;;4972978;28;20069;-96
2022/12/11 10:41:10;;;;;;;52.63;16.20;;;1.20;99.90;;;;;;4991512;28;20552;-95
2022/12/11 10:43:38;;;;;;;56.55;16.58;;;1.30;99.90;;;;;;4961687;28;20034;-95
2022/12/11 10:46:05;;;;;;;59.55;17.35;;;1.30;99.90;;;;;;4960391;28;20509;-94
2022/12/11 10:48:32;;;;;;;59.15;16.33;;;1.30;99.90;;;;;;4974967;28;20857;-96
2022/12/11 10:51:06;;;;;;;58.15;16.23;;;1.30;99.90;;;;;;4970930;28;20104;-95
2022/12/11 10:53:33;;;;;;;56.40;17.17;;;1.30;99.90;;;;;;4964462;28;20046;-93
2022/12/11 10:56:00;;;;;;;61.70;17.17;;;1.30;99.90;;;;;;4965853;28;20042;-94
2022/12/11 10:58:32;;;;;;;63.03;17.35;;;1.30;99.90;;;;;;4978552;28;20045;-94
2022/12/11 11:01:06;;;;;;;56.85;17.17;;;1.30;99.90;;;;;;4981482;28;20094;-94
2022/12/11 11:03:35;;;;;;;59.58;17.15;;;1.30;99.90;;;;;;4965367;28;20502;-94
2022/12/11 11:06:14;;;;;;;62.25;16.45;;;1.30;99.90;;;;;;4964063;28;20233;-94
2022/12/11 11:08:52;;;;;;;56.33;17.15;;;1.40;99.90;;;;;;4967862;28;20123;-94
2022/12/11 11:11:26;;;;;;;58.28;17.17;;;1.40;99.90;;;;;;4981927;28;20074;-95
2022/12/11 11:14:04;;;;;;;;;;;1.40;99.90;;;;;;4966091;28;20069;-93
2022/12/11 11:16:30;;;;;;;52.47;16.45;;;1.40;99.90;;;;;;4980403;28;19922;-93
2022/12/11 11:18:57;;;;;;;55.58;16.75;;;1.40;99.90;;;;;;4976794;28;20042;-93
2022/12/11 11:21:25;;;;;;;53.78;17.45;;;1.40;99.90;;;;;;4976462;28;20049;-94
2022/12/11 11:23:53;;;;;;;53.70;16.90;;;1.40;99.90;;;;;;4976788;28;20184;-92
2022/12/11 11:26:23;;;;;;;55.28;17.40;;;1.40;99.90;;;;;;4959147;28;20050;-93
2022/12/11 11:28:57;;;;;;;49.80;16.88;;;1.40;99.90;;;;;;4961426;28;20465;-93
2022/12/11 11:31:34;;;;;;;50.15;17.30;;;1.30;99.90;;;;;;4964499;28;20042;-93
2022/12/11 11:34:09;;;;;;;55.15;16.00;;;1.50;99.90;;;;;;4963093;28;20288;-93
2022/12/11 11:36:37;;;;;;;55.70;16.27;;;1.40;99.90;;;;;;4974785;28;20077;-92
2022/12/11 11:39:28;;;;;;;58.38;16.98;;;1.50;99.90;;;;;;4963417;28;20304;-92
2022/12/11 11:41:53;;;;;;;56.67;17.83;;;1.40;99.90;;;;;;4962056;28;20117;-92
2022/12/11 11:44:30;;;;;;;56.50;16.92;;;1.40;99.90;;;;;;4981359;28;20196;-91
2022/12/11 11:47:10;;;;;;;59.15;17.00;;;1.50;99.90;;;;;;4974375;28;20046;-93
2022/12/11 11:49:44;;;;;;;57.95;17.48;;;1.60;99.90;;;;;;4978738;28;20080;-93
2022/12/11 11:52:31;;;;;;;64.03;17.08;;;1.50;99.90;;;;;;4989340;28;20523;-90
2022/12/11 11:55:22;;;;;;;49.97;17.45;;;1.50;99.90;;;;;;4987880;28;20251;-90
2022/12/11 11:58:23;;;;;;;53.72;16.20;;;1.50;99.90;;;;;;4974359;28;20117;-90
2022/12/11 12:00:52;;;;;;;54.03;16.05;;;1.50;99.90;;;;;;4955373;28;20081;-91
2022/12/11 12:03:23;;;;;;;57.53;17.17;;;1.50;99.90;;;;;;4954869;28;20041;-91
2022/12/11 12:06:14;;;;;;;56.28;17.23;;;1.50;99.90;;;;;;4988767;28;20044;-90
2022/12/11 12:08:53;;;;;;;52.25;16.80;;;1.50;99.90;;;;;;4946368;28;20206;-90
2022/12/11 12:11:31;;;;;;;62.25;17.75;;;1.60;99.90;;;;;;4962981;28;20055;-90
2022/12/11 12:14:24;;;;;;;60.80;16.42;;;1.60;99.90;;;;;;4976604;28;20042;-89
2022/12/11 12:17:04;;;;;;;54.53;17.08;;;1.70;99.90;;;;;;4961205;28;20042;-90
2022/12/11 12:19:38;;;;;;;52.80;16.63;;;1.70;99.90;;;;;;4974093;28;20054;-89
2022/12/11 12:22:26;;;;;;;57.05;17.92;;;1.70;99.90;;;;;;4997869;28;20259;-90
2022/12/11 12:25:03;;;;;;;54.58;17.25;;;1.50;99.90;;;;;;4972616;28;20116;-90
2022/12/11 12:27:43;;;;;;;54.75;17.55;;;1.50;99.90;;;;;;4982648;28;20068;-89
2022/12/11 12:30:15;;;;;;;58.13;17.88;;;1.50;99.90;;;;;;4975999;28;20046;-89
2022/12/11 12:33:11;;;;;;;49.00;17.73;;;1.50;99.90;;;;;;4974172;28;20488;-90
2022/12/11 12:35:44;;;;;;;59.65;18.17;;;1.60;99.90;;;;;;4977308;28;20093;-91
2022/12/11 12:38:13;;;;;;;54.70;16.80;;;1.60;99.90;;;;;;4960832;28;20038;-91
2022/12/11 12:40:45;;;;;;;58.72;18.17;;;1.60;99.90;;;;;;4970545;28;20083;-89
2022/12/11 12:43:21;;;;;;;52.53;17.08;;;1.70;99.90;;;;;;4973203;28;20430;-87
2022/12/11 12:46:02;;;;;;;56.28;17.38;;;1.60;99.90;;;;;;4959973;28;20049;-89
2022/12/11 12:48:28;;;;;;;58.78;17.83;;;1.60;99.90;;;;;;4989077;28;20058;-90
2022/12/11 12:50:54;;;;;;;54.05;17.30;;;1.70;99.90;;;;;;4981733;28;20058;-90
2022/12/11 12:53:26;;;;;;;61.78;17.48;;;1.50;99.90;;;;;;4973489;28;20482;-89
2022/12/11 12:55:55;;;;;;;57.85;18.08;;;1.60;99.90;;;;;;4972934;28;20486;-89
2022/12/11 12:58:32;;;;;;;54.70;17.75;;;1.60;99.90;;;;;;4975325;28;20034;-89
2022/12/11 13:01:11;;;;;;;51.30;18.05;;;1.50;99.90;;;;;;4972910;28;20059;-89
2022/12/11 13:03:52;;;;;;;54.22;18.55;;;1.40;99.90;;;;;;4963798;28;20124;-90
2022/12/11 13:06:41;;;;;;;48.53;16.60;;;1.50;99.90;;;;;;4956736;28;20092;-90
2022/12/11 13:09:16;;;;;;;56.45;18.90;;;1.50;99.90;;;;;;4992641;28;20142;-90
2022/12/11 13:11:43;;;;;;;50.47;17.35;;;1.60;99.90;;;;;;4975665;28;20517;-90
2022/12/11 13:14:14;;;;;;;53.10;18.63;;;1.60;99.90;;;;;;4975604;28;20034;-90
2022/12/11 13:16:43;;;;;;;56.58;18.33;;;1.50;99.90;;;;;;4989589;28;20542;-89
2022/12/11 13:19:26;;;;;;;56.38;19.20;;;1.40;99.90;;;;;;4975311;28;20057;-92
2022/12/11 13:22:02;;;;;;;51.35;18.83;;;1.40;99.90;;;;;;4977390;28;20046;-91
2022/12/11 13:24:30;;;;;;;57.95;18.63;;;1.40;99.90;;;;;;4975538;28;20042;-92
2022/12/11 13:27:21;;;;;;;51.08;17.40;;;1.40;99.90;;;;;;4977326;28;20039;-92
2022/12/11 13:29:47;;;;;;;64.57;18.08;;;1.50;99.90;;;;;;4973694;28;20034;-92
2022/12/11 13:32:13;;;;;;;51.28;18.15;;;1.50;99.90;;;;;;4963198;28;20045;-92
2022/12/11 13:34:50;;;;;;;49.53;17.50;;;1.50;99.90;;;;;;4973879;28;20053;-92
2022/12/11 13:37:41;;;;;;;57.08;18.52;;;1.50;99.90;;;;;;4979473;28;20096;-92
2022/12/11 13:40:32;;;;;;;55.15;17.88;;;1.50;99.90;;;;;;4962035;28;20447;-92
2022/12/11 13:42:59;;;;;;;61.20;17.88;;;1.60;99.90;;;;;;4976175;28;20108;-92